RYR6958 EIKY-EGCC
Flight info
| Callsign | RYR6958 |
|---|---|
| Flight time | 0h 48m |
| Altitude | 27000 |
| Route | SHA3D SHA DCT BOFUM Q37 MALUD MALUD1M |
| Aircraft | B738/M-SDE2E3FGHIRWXY/LB1 |
Departure
| Time | 2026-04-23 17:57 |
|---|---|
| Airport | Kerry Airport (EIKY) |
Arrival
| Time | 2026-04-23 18:45 |
|---|---|
| Airport | Manchester Airport (EGCC) |
| Time | Latitude | Longitude | Altitude | Speed | Heading |
|---|---|---|---|---|---|
| 2026-04-23 17:54 | 52.18089 | -9.53597 | 91 ft | 2 kts | 228° |
| 2026-04-23 17:55 | 52.17953 | -9.53596 | 91 ft | 15 kts | 162° |
| 2026-04-23 17:55 | 52.17882 | -9.53556 | 91 ft | 10 kts | 162° |
| 2026-04-23 17:55 | 52.17855 | -9.53500 | 91 ft | 0 kts | 71° |
| 2026-04-23 17:56 | 52.17915 | -9.53215 | 93 ft | 74 kts | 70° |
| 2026-04-23 17:56 | 52.18192 | -9.51910 | 243 ft | 158 kts | 76° |
| 2026-04-23 17:57 | 52.18584 | -9.49956 | 1037 ft | 200 kts | 76° |
| 2026-04-23 17:57 | 52.19014 | -9.47716 | 2065 ft | 219 kts | 77° |
| 2026-04-23 17:57 | 52.20091 | -9.42547 | 4016 ft | 262 kts | 76° |
| 2026-04-23 17:58 | 52.20712 | -9.39584 | 4969 ft | 289 kts | 76° |
| 2026-04-23 17:58 | 52.21469 | -9.36470 | 5920 ft | 305 kts | 64° |
| 2026-04-23 17:58 | 52.23004 | -9.33981 | 6885 ft | 324 kts | 37° |
| 2026-04-23 17:58 | 52.24965 | -9.32068 | 7842 ft | 330 kts | 34° |
| 2026-04-23 17:59 | 52.26982 | -9.30263 | 8806 ft | 336 kts | 31° |
| 2026-04-23 17:59 | 52.29071 | -9.28429 | 9804 ft | 341 kts | 31° |
| 2026-04-23 17:59 | 52.31149 | -9.26596 | 10724 ft | 344 kts | 33° |
| 2026-04-23 17:59 | 52.33256 | -9.24708 | 11664 ft | 347 kts | 32° |
| 2026-04-23 18:00 | 52.35382 | -9.22777 | 12613 ft | 350 kts | 32° |
| 2026-04-23 18:00 | 52.37491 | -9.20845 | 13191 ft | 365 kts | 34° |
| 2026-04-23 18:00 | 52.39754 | -9.18757 | 13741 ft | 379 kts | 32° |
| 2026-04-23 18:00 | 52.42101 | -9.16581 | 14274 ft | 392 kts | 32° |
| 2026-04-23 18:01 | 52.44496 | -9.14353 | 14763 ft | 404 kts | 33° |
| 2026-04-23 18:01 | 52.46992 | -9.12031 | 15262 ft | 415 kts | 33° |
| 2026-04-23 18:01 | 52.49514 | -9.09683 | 15757 ft | 422 kts | 32° |
| 2026-04-23 18:01 | 52.52065 | -9.07305 | 16257 ft | 427 kts | 32° |
| 2026-04-23 18:02 | 52.53796 | -9.05690 | 16597 ft | 431 kts | 32° |
| 2026-04-23 18:02 | 52.57301 | -9.02413 | 17285 ft | 435 kts | 32° |
| 2026-04-23 18:02 | 52.59953 | -8.99928 | 17800 ft | 437 kts | 32° |
| 2026-04-23 18:02 | 52.62582 | -8.97462 | 18338 ft | 439 kts | 32° |
| 2026-04-23 18:03 | 52.65225 | -8.94979 | 18819 ft | 440 kts | 32° |
| 2026-04-23 18:03 | 52.67926 | -8.92438 | 19298 ft | 443 kts | 32° |
| 2026-04-23 18:03 | 52.70535 | -8.89810 | 19763 ft | 446 kts | 40° |
| 2026-04-23 18:03 | 52.72665 | -8.86081 | 20254 ft | 445 kts | 59° |
| 2026-04-23 18:04 | 52.74060 | -8.81572 | 20768 ft | 443 kts | 70° |
| 2026-04-23 18:04 | 52.75265 | -8.76826 | 21278 ft | 447 kts | 70° |
| 2026-04-23 18:04 | 52.76442 | -8.72105 | 21786 ft | 449 kts | 70° |
| 2026-04-23 18:04 | 52.77630 | -8.67343 | 22300 ft | 452 kts | 70° |
| 2026-04-23 18:05 | 52.78845 | -8.62505 | 22843 ft | 454 kts | 70° |
| 2026-04-23 18:05 | 52.80057 | -8.57717 | 23362 ft | 456 kts | 69° |
| 2026-04-23 18:05 | 52.81285 | -8.52889 | 23911 ft | 457 kts | 69° |
| 2026-04-23 18:05 | 52.82527 | -8.48025 | 24370 ft | 458 kts | 69° |
| 2026-04-23 18:06 | 52.83771 | -8.43152 | 24837 ft | 459 kts | 70° |
| 2026-04-23 18:06 | 52.85013 | -8.38275 | 25240 ft | 461 kts | 70° |
| 2026-04-23 18:06 | 52.86258 | -8.33375 | 25274 ft | 472 kts | 69° |
| 2026-04-23 18:06 | 52.87530 | -8.28350 | 25292 ft | 477 kts | 70° |
| 2026-04-23 18:07 | 52.88821 | -8.23240 | 25296 ft | 478 kts | 69° |
| 2026-04-23 18:07 | 52.90091 | -8.18207 | 25288 ft | 476 kts | 70° |
| 2026-04-23 18:07 | 52.90946 | -8.14821 | 25292 ft | 476 kts | 70° |
| 2026-04-23 18:07 | 52.92650 | -8.08057 | 25286 ft | 475 kts | 70° |
| 2026-04-23 18:08 | 52.93496 | -8.04693 | 25294 ft | 475 kts | 71° |
| 2026-04-23 18:08 | 52.94756 | -7.99653 | 25298 ft | 475 kts | 69° |
| 2026-04-23 18:08 | 52.96021 | -7.94580 | 25314 ft | 475 kts | 70° |
| 2026-04-23 18:08 | 52.97270 | -7.89558 | 25550 ft | 474 kts | 69° |
| 2026-04-23 18:09 | 52.98539 | -7.84459 | 25783 ft | 477 kts | 70° |
| 2026-04-23 18:09 | 52.99800 | -7.79377 | 26017 ft | 481 kts | 69° |
| 2026-04-23 18:09 | 53.01077 | -7.74224 | 26259 ft | 482 kts | 69° |
| 2026-04-23 18:09 | 53.02351 | -7.69054 | 26481 ft | 482 kts | 70° |
| 2026-04-23 18:10 | 53.03612 | -7.63931 | 26730 ft | 482 kts | 70° |
| 2026-04-23 18:10 | 53.04869 | -7.58808 | 26960 ft | 481 kts | 69° |
| 2026-04-23 18:10 | 53.06145 | -7.53598 | 27205 ft | 479 kts | 69° |
| 2026-04-23 18:10 | 53.07381 | -7.48550 | 27306 ft | 471 kts | 68° |
| 2026-04-23 18:11 | 53.08617 | -7.43479 | 27306 ft | 471 kts | 70° |
| 2026-04-23 18:11 | 53.09854 | -7.38398 | 27321 ft | 473 kts | 69° |
| 2026-04-23 18:11 | 53.11080 | -7.33339 | 27341 ft | 477 kts | 69° |
| 2026-04-23 18:11 | 53.12316 | -7.28235 | 27328 ft | 478 kts | 70° |
| 2026-04-23 18:12 | 53.13570 | -7.23054 | 27326 ft | 479 kts | 69° |
| 2026-04-23 18:12 | 53.14817 | -7.17887 | 27316 ft | 479 kts | 70° |
| 2026-04-23 18:12 | 53.16049 | -7.12760 | 27323 ft | 479 kts | 69° |
| 2026-04-23 18:12 | 53.17280 | -7.07631 | 27329 ft | 478 kts | 69° |
| 2026-04-23 18:13 | 53.18512 | -7.02485 | 27336 ft | 477 kts | 69° |
| 2026-04-23 18:13 | 53.19736 | -6.97366 | 27332 ft | 476 kts | 70° |
| 2026-04-23 18:13 | 53.20962 | -6.92228 | 27343 ft | 476 kts | 69° |
| 2026-04-23 18:13 | 53.22189 | -6.87076 | 27341 ft | 475 kts | 69° |
| 2026-04-23 18:14 | 53.23395 | -6.81987 | 27337 ft | 475 kts | 70° |
| 2026-04-23 18:14 | 53.24601 | -6.76888 | 27337 ft | 474 kts | 69° |
| 2026-04-23 18:14 | 53.25815 | -6.71737 | 27346 ft | 474 kts | 68° |
| 2026-04-23 18:14 | 53.27013 | -6.66647 | 27340 ft | 473 kts | 69° |
| 2026-04-23 18:15 | 53.28217 | -6.61520 | 27351 ft | 473 kts | 70° |
| 2026-04-23 18:15 | 53.29408 | -6.56430 | 27354 ft | 473 kts | 69° |
| 2026-04-23 18:15 | 53.30613 | -6.51276 | 27350 ft | 473 kts | 69° |
| 2026-04-23 18:15 | 53.31798 | -6.46196 | 27355 ft | 473 kts | 69° |
| 2026-04-23 18:16 | 53.32988 | -6.41073 | 27350 ft | 473 kts | 69° |
| 2026-04-23 18:16 | 53.34183 | -6.35923 | 27346 ft | 474 kts | 69° |
| 2026-04-23 18:16 | 53.35381 | -6.30745 | 27371 ft | 474 kts | 70° |
| 2026-04-23 18:17 | 53.37747 | -6.20496 | 27373 ft | 474 kts | 69° |
| 2026-04-23 18:17 | 53.38947 | -6.15277 | 27374 ft | 474 kts | 70° |
| 2026-04-23 18:17 | 53.40116 | -6.10181 | 27380 ft | 474 kts | 69° |
| 2026-04-23 18:17 | 53.41300 | -6.05000 | 27378 ft | 474 kts | 69° |
| 2026-04-23 18:18 | 53.42486 | -5.99808 | 27375 ft | 474 kts | 69° |
| 2026-04-23 18:18 | 53.43658 | -5.94657 | 27369 ft | 475 kts | 69° |
| 2026-04-23 18:18 | 53.44838 | -5.89460 | 27373 ft | 475 kts | 69° |
| 2026-04-23 18:18 | 53.46002 | -5.84315 | 27366 ft | 475 kts | 69° |
| 2026-04-23 18:19 | 53.47182 | -5.79091 | 27369 ft | 475 kts | 69° |
| 2026-04-23 18:19 | 53.48338 | -5.73961 | 27365 ft | 475 kts | 70° |
| 2026-04-23 18:19 | 53.49512 | -5.68738 | 27369 ft | 475 kts | 69° |
| 2026-04-23 18:19 | 53.50674 | -5.63563 | 27367 ft | 475 kts | 69° |
| 2026-04-23 18:20 | 53.51843 | -5.58341 | 27375 ft | 475 kts | 70° |
| 2026-04-23 18:20 | 53.52918 | -5.53111 | 27369 ft | 475 kts | 75° |
| 2026-04-23 18:20 | 53.53538 | -5.47717 | 27368 ft | 474 kts | 84° |
| 2026-04-23 18:20 | 53.53658 | -5.42149 | 27372 ft | 473 kts | 92° |
| 2026-04-23 18:21 | 53.53488 | -5.36644 | 27375 ft | 473 kts | 94° |
| 2026-04-23 18:21 | 53.53299 | -5.31138 | 27368 ft | 473 kts | 94° |
| 2026-04-23 18:21 | 53.53133 | -5.25592 | 27375 ft | 473 kts | 93° |
| 2026-04-23 18:21 | 53.52994 | -5.20098 | 27372 ft | 473 kts | 93° |
| 2026-04-23 18:22 | 53.52860 | -5.14509 | 27377 ft | 473 kts | 92° |
| 2026-04-23 18:22 | 53.52703 | -5.09071 | 27378 ft | 473 kts | 93° |
| 2026-04-23 18:22 | 53.52519 | -5.03519 | 27368 ft | 473 kts | 94° |
| 2026-04-23 18:22 | 53.52328 | -4.97982 | 27378 ft | 472 kts | 93° |
| 2026-04-23 18:23 | 53.52203 | -4.94304 | 27368 ft | 472 kts | 93° |
| 2026-04-23 18:23 | 53.51770 | -4.81486 | 27371 ft | 472 kts | 93° |
| 2026-04-23 18:24 | 53.51394 | -4.70464 | 27365 ft | 472 kts | 93° |
| 2026-04-23 18:24 | 53.51205 | -4.64999 | 27374 ft | 472 kts | 93° |
| 2026-04-23 18:24 | 53.51012 | -4.59514 | 27372 ft | 472 kts | 93° |
| 2026-04-23 18:25 | 53.50618 | -4.48509 | 27362 ft | 471 kts | 93° |
| 2026-04-23 18:25 | 53.50415 | -4.42970 | 27370 ft | 471 kts | 93° |
| 2026-04-23 18:25 | 53.50212 | -4.37490 | 27369 ft | 471 kts | 93° |
| 2026-04-23 18:25 | 53.50008 | -4.32031 | 27375 ft | 471 kts | 93° |
| 2026-04-23 18:26 | 53.49798 | -4.26505 | 27375 ft | 471 kts | 93° |
| 2026-04-23 18:26 | 53.49589 | -4.21052 | 27379 ft | 471 kts | 93° |
| 2026-04-23 18:26 | 53.49377 | -4.15591 | 27372 ft | 471 kts | 93° |
| 2026-04-23 18:26 | 53.49162 | -4.10095 | 27383 ft | 471 kts | 92° |
| 2026-04-23 18:27 | 53.48944 | -4.04583 | 27386 ft | 470 kts | 92° |
| 2026-04-23 18:27 | 53.48715 | -3.99128 | 27381 ft | 470 kts | 94° |
| 2026-04-23 18:27 | 53.48179 | -3.93666 | 27382 ft | 471 kts | 102° |
| 2026-04-23 18:27 | 53.47166 | -3.88452 | 27396 ft | 472 kts | 109° |
| 2026-04-23 18:28 | 53.46044 | -3.83297 | 27388 ft | 472 kts | 109° |
| 2026-04-23 18:28 | 53.44922 | -3.78146 | 27330 ft | 458 kts | 108° |
| 2026-04-23 18:28 | 53.43871 | -3.73201 | 26627 ft | 451 kts | 108° |
| 2026-04-23 18:28 | 53.42846 | -3.68275 | 25979 ft | 444 kts | 108° |
| 2026-04-23 18:29 | 53.41833 | -3.63386 | 25318 ft | 439 kts | 108° |
| 2026-04-23 18:29 | 53.41034 | -3.58543 | 24674 ft | 432 kts | 98° |
| 2026-04-23 18:29 | 53.40734 | -3.53553 | 24064 ft | 425 kts | 92° |
| 2026-04-23 18:29 | 53.40596 | -3.48651 | 23349 ft | 420 kts | 91° |
| 2026-04-23 18:30 | 53.40471 | -3.43743 | 22620 ft | 416 kts | 91° |
| 2026-04-23 18:30 | 53.40320 | -3.38947 | 21915 ft | 411 kts | 92° |
| 2026-04-23 18:30 | 53.40137 | -3.34218 | 21225 ft | 407 kts | 94° |
| 2026-04-23 18:30 | 53.39933 | -3.29496 | 20556 ft | 403 kts | 94° |
| 2026-04-23 18:31 | 53.39720 | -3.24805 | 19895 ft | 400 kts | 95° |
| 2026-04-23 18:31 | 53.39508 | -3.20199 | 19252 ft | 396 kts | 95° |
| 2026-04-23 18:31 | 53.39370 | -3.15594 | 18594 ft | 394 kts | 88° |
| 2026-04-23 18:31 | 53.39974 | -3.11159 | 17892 ft | 394 kts | 68° |
| 2026-04-23 18:32 | 53.41264 | -3.07121 | 17201 ft | 392 kts | 60° |
| 2026-04-23 18:32 | 53.42660 | -3.03195 | 16501 ft | 390 kts | 59° |
| 2026-04-23 18:32 | 53.44044 | -2.99321 | 15843 ft | 388 kts | 60° |
| 2026-04-23 18:32 | 53.45428 | -2.95411 | 15177 ft | 387 kts | 60° |
| 2026-04-23 18:33 | 53.46779 | -2.91552 | 14534 ft | 385 kts | 60° |
| 2026-04-23 18:33 | 53.48129 | -2.87661 | 13861 ft | 384 kts | 61° |
| 2026-04-23 18:33 | 53.49459 | -2.83811 | 13157 ft | 382 kts | 61° |
| 2026-04-23 18:33 | 53.50792 | -2.79936 | 12463 ft | 380 kts | 60° |
| 2026-04-23 18:34 | 53.52104 | -2.76118 | 11783 ft | 378 kts | 60° |
| 2026-04-23 18:34 | 53.53404 | -2.72329 | 11143 ft | 376 kts | 61° |
| 2026-04-23 18:34 | 53.54538 | -2.68363 | 10472 ft | 372 kts | 75° |
| 2026-04-23 18:34 | 53.54796 | -2.64120 | 9813 ft | 365 kts | 96° |
| 2026-04-23 18:35 | 53.54203 | -2.60062 | 9138 ft | 359 kts | 114° |
| 2026-04-23 18:35 | 53.52868 | -2.56538 | 8451 ft | 354 kts | 133° |
| 2026-04-23 18:35 | 53.50981 | -2.53967 | 7783 ft | 352 kts | 150° |
| 2026-04-23 18:35 | 53.48694 | -2.52538 | 7123 ft | 350 kts | 169° |
| 2026-04-23 18:36 | 53.46289 | -2.52419 | 6463 ft | 348 kts | 187° |
| 2026-04-23 18:36 | 53.43972 | -2.53607 | 5778 ft | 348 kts | 205° |
| 2026-04-23 18:36 | 53.41989 | -2.55859 | 5117 ft | 347 kts | 220° |
| 2026-04-23 18:36 | 53.40460 | -2.58997 | 4430 ft | 346 kts | 236° |
| 2026-04-23 18:37 | 53.39275 | -2.62447 | 3832 ft | 342 kts | 238° |
| 2026-04-23 18:37 | 53.38133 | -2.65886 | 3597 ft | 327 kts | 238° |
| 2026-04-23 18:37 | 53.37036 | -2.69136 | 3441 ft | 312 kts | 238° |
| 2026-04-23 18:37 | 53.35988 | -2.72190 | 3300 ft | 298 kts | 238° |
| 2026-04-23 18:38 | 53.34792 | -2.74870 | 3128 ft | 282 kts | 216° |
| 2026-04-23 18:38 | 53.33052 | -2.76092 | 3018 ft | 263 kts | 184° |
| 2026-04-23 18:38 | 53.31301 | -2.75942 | 2989 ft | 248 kts | 165° |
| 2026-04-23 18:38 | 53.29713 | -2.74900 | 2981 ft | 242 kts | 149° |
| 2026-04-23 18:39 | 53.28377 | -2.73207 | 2976 ft | 242 kts | 133° |
| 2026-04-23 18:39 | 53.27445 | -2.70868 | 2994 ft | 246 kts | 120° |
| 2026-04-23 18:39 | 53.26619 | -2.68361 | 2990 ft | 248 kts | 119° |
| 2026-04-23 18:39 | 53.25791 | -2.65819 | 2988 ft | 247 kts | 119° |
| 2026-04-23 18:40 | 53.24976 | -2.63316 | 2987 ft | 246 kts | 119° |
| 2026-04-23 18:40 | 53.24170 | -2.60849 | 2997 ft | 233 kts | 119° |
| 2026-04-23 18:40 | 53.23431 | -2.58585 | 2983 ft | 213 kts | 119° |
| 2026-04-23 18:40 | 53.22749 | -2.56501 | 2990 ft | 196 kts | 120° |
| 2026-04-23 18:41 | 53.22274 | -2.54427 | 2971 ft | 195 kts | 94° |
| 2026-04-23 18:41 | 53.22750 | -2.52332 | 2990 ft | 199 kts | 50° |
| 2026-04-23 18:41 | 53.23684 | -2.50708 | 2988 ft | 190 kts | 54° |
| 2026-04-23 18:41 | 53.24479 | -2.48963 | 2915 ft | 188 kts | 54° |
| 2026-04-23 18:42 | 53.25312 | -2.47287 | 2681 ft | 188 kts | 52° |
| 2026-04-23 18:42 | 53.26142 | -2.45600 | 2434 ft | 185 kts | 54° |
| 2026-04-23 18:42 | 53.26937 | -2.43963 | 2199 ft | 181 kts | 54° |
| 2026-04-23 18:42 | 53.27712 | -2.42363 | 1951 ft | 178 kts | 54° |
| 2026-04-23 18:43 | 53.28485 | -2.40768 | 1713 ft | 174 kts | 55° |
| 2026-04-23 18:43 | 53.29220 | -2.39252 | 1494 ft | 163 kts | 54° |
| 2026-04-23 18:43 | 53.29906 | -2.37837 | 1290 ft | 150 kts | 53° |
| 2026-04-23 18:43 | 53.30532 | -2.36545 | 1046 ft | 138 kts | 54° |
| 2026-04-23 18:44 | 53.31137 | -2.35314 | 918 ft | 139 kts | 53° |
| 2026-04-23 18:44 | 53.31753 | -2.34045 | 779 ft | 143 kts | 52° |
| 2026-04-23 18:44 | 53.32386 | -2.32733 | 630 ft | 146 kts | 54° |
| 2026-04-23 18:44 | 53.33032 | -2.31409 | 369 ft | 150 kts | 52° |
| 2026-04-23 18:45 | 53.33676 | -2.30079 | 237 ft | 137 kts | 52° |
| 2026-04-23 18:45 | 53.34216 | -2.28959 | 227 ft | 107 kts | 51° |
| 2026-04-23 18:45 | 53.34591 | -2.28185 | 227 ft | 50 kts | 50° |
| 2026-04-23 18:45 | 53.34763 | -2.27845 | 222 ft | 20 kts | 39° |
| 2026-04-23 18:46 | 53.34870 | -2.27846 | 225 ft | 14 kts | 324° |
| 2026-04-23 18:46 | 53.34944 | -2.27902 | 229 ft | 12 kts | 7° |
| 2026-04-23 18:46 | 53.35031 | -2.27743 | 229 ft | 25 kts | 52° |
| 2026-04-23 18:46 | 53.35161 | -2.27472 | 236 ft | 32 kts | 51° |
| 2026-04-23 18:47 | 53.35296 | -2.27194 | 240 ft | 30 kts | 50° |
| 2026-04-23 18:47 | 53.35414 | -2.26946 | 248 ft | 20 kts | 51° |
| 2026-04-23 18:47 | 53.35471 | -2.26882 | 253 ft | 3 kts | 342° |
| 2026-04-23 18:47 | 53.35478 | -2.26890 | 254 ft | 0 kts | 324° |
| 2026-04-23 18:48 | 53.35484 | -2.26897 | 254 ft | 5 kts | 324° |
| 2026-04-23 18:49 | 53.35549 | -2.26982 | 255 ft | 18 kts | 319° |
| 2026-04-23 18:49 | 53.35660 | -2.27141 | 255 ft | 19 kts | 321° |
| 2026-04-23 18:49 | 53.35778 | -2.27127 | 254 ft | 14 kts | 50° |
| 2026-04-23 18:49 | 53.35828 | -2.27003 | 255 ft | 13 kts | 59° |
| 2026-04-23 18:50 | 53.35844 | -2.26959 | 255 ft | 13 kts | 54° |
| 2026-04-23 18:50 | 53.35928 | -2.26839 | 255 ft | 12 kts | 358° |
| 2026-04-23 18:50 | 53.35994 | -2.26901 | 254 ft | 10 kts | 313° |
| 2026-04-23 18:50 | 53.36010 | -2.26927 | 254 ft | 0 kts | 314° |
| 2026-04-23 18:51 | 53.36010 | -2.26928 | 254 ft | 0 kts | 314° |